createdAt,value
2018-07-22T00:01:20.575Z,30.77
2018-07-22T00:03:49.918Z,30.73
2018-07-22T00:06:18.915Z,30.17
2018-07-22T00:08:47.887Z,29.53
2018-07-22T00:11:16.906Z,29.20
2018-07-22T00:13:46.098Z,30.20
2018-07-22T00:16:15.074Z,34.27
2018-07-22T00:18:44.088Z,32.77
2018-07-22T00:21:13.114Z,31.10
2018-07-22T00:23:42.174Z,30.00
2018-07-22T00:26:11.195Z,28.40
2018-07-22T00:28:40.247Z,33.53
2018-07-22T00:31:09.334Z,31.07
2018-07-22T00:33:38.330Z,29.53
2018-07-22T00:36:07.318Z,31.27
2018-07-22T00:38:36.318Z,31.13
2018-07-22T00:41:05.381Z,37.07
2018-07-22T00:43:34.413Z,32.77
2018-07-22T00:46:03.451Z,33.90
2018-07-22T00:48:32.470Z,34.40
2018-07-22T00:51:01.584Z,36.17
2018-07-22T00:53:30.634Z,37.03
2018-07-22T00:55:59.644Z,42.00
2018-07-22T00:58:28.690Z,35.70
2018-07-22T01:00:57.762Z,35.00
2018-07-22T01:03:26.786Z,35.20
2018-07-22T01:05:55.787Z,35.70
2018-07-22T01:08:24.786Z,37.93
2018-07-22T01:10:53.825Z,37.97
2018-07-22T01:13:22.926Z,38.90
2018-07-22T01:15:52.014Z,39.03
2018-07-22T01:18:21.054Z,38.37
2018-07-22T01:20:50.206Z,37.27
2018-07-22T01:23:19.242Z,38.17
2018-07-22T01:25:48.509Z,38.43
2018-07-22T01:28:17.579Z,38.37
2018-07-22T01:30:46.650Z,37.03
2018-07-22T01:33:15.613Z,39.83
2018-07-22T01:35:44.630Z,39.97
2018-07-22T01:38:13.594Z,39.40
2018-07-22T01:40:42.558Z,36.57
2018-07-22T01:43:12.708Z,39.17
2018-07-22T01:45:41.680Z,40.50
2018-07-22T01:48:10.653Z,35.57
2018-07-22T01:50:39.701Z,38.93
2018-07-22T01:53:08.750Z,38.87
2018-07-22T01:55:37.790Z,40.30
2018-07-22T01:58:06.746Z,39.80
2018-07-22T02:00:35.743Z,41.83
2018-07-22T02:03:04.711Z,42.70
2018-07-22T02:05:33.714Z,37.73
2018-07-22T02:08:02.711Z,43.07
2018-07-22T02:10:31.728Z,38.57
2018-07-22T02:13:00.712Z,40.80
2018-07-22T02:15:29.698Z,38.27
2018-07-22T02:17:58.679Z,42.37
2018-07-22T02:20:27.654Z,37.53
2018-07-22T02:22:56.630Z,37.73
2018-07-22T02:25:25.690Z,40.73
2018-07-22T02:27:54.791Z,35.97
2018-07-22T02:30:23.778Z,37.67
2018-07-22T02:32:52.774Z,36.60
2018-07-22T02:35:22.171Z,35.87
2018-07-22T02:37:51.115Z,39.23
2018-07-22T02:40:20.123Z,39.83
2018-07-22T02:42:49.195Z,40.90
2018-07-22T02:45:18.212Z,39.17
2018-07-22T02:47:47.345Z,41.40
2018-07-22T02:50:16.327Z,40.90
2018-07-22T02:52:45.327Z,38.13
2018-07-22T02:55:14.304Z,39.13
2018-07-22T02:57:43.277Z,35.33
2018-07-22T03:00:12.266Z,38.63
2018-07-22T03:02:41.252Z,38.33
2018-07-22T03:05:10.219Z,37.87
2018-07-22T03:07:39.219Z,39.40
2018-07-22T03:10:08.268Z,38.50
2018-07-22T03:12:37.233Z,35.77
2018-07-22T03:15:06.342Z,38.37
2018-07-22T03:17:35.382Z,38.03
2018-07-22T03:20:04.486Z,37.40
2018-07-22T03:22:33.515Z,35.40
2018-07-22T03:25:02.492Z,33.57
2018-07-22T03:27:31.475Z,31.83
2018-07-22T03:30:00.499Z,32.93
2018-07-22T03:32:29.511Z,32.03
2018-07-22T03:34:58.518Z,32.87
2018-07-22T03:37:27.505Z,31.30
2018-07-22T03:39:56.466Z,37.00
2018-07-22T03:42:25.454Z,28.70
2018-07-22T03:44:54.529Z,29.30
2018-07-22T03:47:23.574Z,27.83
2018-07-22T03:49:52.754Z,28.13
2018-07-22T03:52:21.751Z,28.37
2018-07-22T03:54:50.735Z,28.43
2018-07-22T03:57:19.726Z,28.27
2018-07-22T03:59:48.771Z,28.40
2018-07-22T04:02:17.742Z,25.73
2018-07-22T04:04:46.894Z,26.73
2018-07-22T04:07:15.902Z,29.40
2018-07-22T04:09:44.872Z,32.77
2018-07-22T04:12:13.889Z,33.53
2018-07-22T04:14:42.899Z,32.37
2018-07-22T04:17:11.911Z,33.17
2018-07-22T04:19:40.912Z,27.80
2018-07-22T04:22:09.962Z,29.70
2018-07-22T04:24:38.937Z,35.17
2018-07-22T04:27:08.053Z,29.90
2018-07-22T04:29:37.073Z,29.23
2018-07-22T04:32:06.070Z,28.10
2018-07-22T04:34:35.131Z,29.60
2018-07-22T04:37:04.155Z,27.00
2018-07-22T04:39:33.142Z,27.50
2018-07-22T04:42:02.171Z,28.17
2018-07-22T04:44:31.187Z,26.57
2018-07-22T04:47:00.206Z,29.93
2018-07-22T04:49:29.192Z,29.13
2018-07-22T04:51:58.202Z,32.47
2018-07-22T04:54:27.510Z,31.83
2018-07-22T04:56:56.765Z,29.23
2018-07-22T04:59:26.206Z,27.37
2018-07-22T05:01:55.264Z,28.83
2018-07-22T05:04:24.500Z,27.87
2018-07-22T05:06:53.643Z,27.97
2018-07-22T05:09:22.650Z,30.27
2018-07-22T05:11:51.806Z,26.67
2018-07-22T05:14:20.795Z,26.57
2018-07-22T05:16:50.058Z,25.80
2018-07-22T05:19:19.146Z,24.43
2018-07-22T05:21:48.259Z,23.93
2018-07-22T05:24:17.354Z,25.20
2018-07-22T05:26:46.366Z,23.27
2018-07-22T05:29:15.370Z,22.07
2018-07-22T05:31:44.355Z,21.97
2018-07-22T05:34:13.400Z,22.13
2018-07-22T05:36:42.419Z,23.13
2018-07-22T05:39:12.140Z,21.87
2018-07-22T05:41:41.799Z,21.47
2018-07-22T05:44:10.805Z,21.93
2018-07-22T05:46:39.782Z,22.27
2018-07-22T05:49:08.845Z,21.60
2018-07-22T05:51:37.901Z,21.63
2018-07-22T05:54:06.939Z,21.93
2018-07-22T05:56:35.972Z,20.90
2018-07-22T05:59:05.071Z,20.97
2018-07-22T06:01:34.059Z,22.87
2018-07-22T06:04:03.115Z,20.53
2018-07-22T06:06:32.105Z,21.03
2018-07-22T06:09:01.112Z,20.40
2018-07-22T06:11:30.158Z,21.40
2018-07-22T06:13:59.146Z,21.93
2018-07-22T06:16:28.194Z,20.60
2018-07-22T06:18:57.178Z,18.67
2018-07-22T06:21:26.170Z,19.97
2018-07-22T06:23:55.226Z,20.40
2018-07-22T06:26:24.200Z,21.17
2018-07-22T06:28:53.212Z,20.43
2018-07-22T06:31:22.324Z,19.97
2018-07-22T06:33:51.342Z,19.17
2018-07-22T06:36:20.431Z,18.43
2018-07-22T06:38:49.678Z,20.43
2018-07-22T06:41:18.699Z,19.20
2018-07-22T06:43:47.696Z,20.53
2018-07-22T06:46:16.843Z,18.70
2018-07-22T06:48:45.759Z,17.87
2018-07-22T06:51:14.778Z,18.93
2018-07-22T06:53:43.786Z,17.73
2018-07-22T06:56:12.787Z,18.57
2018-07-22T06:58:41.807Z,19.53
2018-07-22T07:01:10.815Z,20.37
2018-07-22T07:03:39.814Z,20.03
2018-07-22T07:06:08.868Z,20.50
2018-07-22T07:08:37.868Z,17.97
2018-07-22T07:11:06.897Z,18.93
2018-07-22T07:13:35.810Z,18.77
2018-07-22T07:16:04.876Z,18.63
2018-07-22T07:18:33.897Z,17.30
2018-07-22T07:21:02.882Z,19.93
2018-07-22T07:23:31.853Z,18.33
2018-07-22T07:26:00.844Z,18.83
2018-07-22T07:28:29.867Z,19.53
2018-07-22T07:30:58.882Z,18.47
2018-07-22T07:33:27.936Z,20.73
2018-07-22T07:35:56.923Z,17.37
2018-07-22T07:38:25.958Z,20.67
2018-07-22T07:40:55.039Z,20.60
2018-07-22T07:43:24.231Z,21.03
2018-07-22T07:45:53.477Z,19.40
2018-07-22T07:48:22.422Z,20.20
2018-07-22T07:50:51.466Z,21.47
2018-07-22T07:53:20.542Z,19.80
2018-07-22T07:55:49.558Z,19.50
2018-07-22T07:58:18.526Z,19.60
2018-07-22T08:00:47.510Z,19.30
2018-07-22T08:03:16.570Z,20.07
2018-07-22T08:05:45.571Z,19.40
2018-07-22T08:08:14.543Z,20.23
2018-07-22T08:10:43.537Z,18.03
2018-07-22T08:13:12.643Z,17.87
2018-07-22T08:15:41.658Z,18.73
2018-07-22T08:18:10.647Z,18.53
2018-07-22T08:20:39.631Z,21.87
2018-07-22T08:23:08.729Z,18.73
2018-07-22T08:25:37.763Z,18.70
2018-07-22T08:28:06.757Z,19.50
2018-07-22T08:30:35.771Z,19.30
2018-07-22T08:33:04.823Z,18.70
2018-07-22T08:35:33.882Z,19.30
2018-07-22T08:38:02.882Z,19.30
2018-07-22T08:40:32.018Z,19.77
2018-07-22T08:43:01.019Z,17.80
2018-07-22T08:45:30.887Z,18.03
2018-07-22T08:47:59.864Z,17.53
2018-07-22T08:50:28.888Z,18.93
2018-07-22T08:52:57.870Z,18.37
2018-07-22T08:55:26.858Z,18.43
2018-07-22T09:00:35.198Z,17.60
2018-07-22T09:03:04.168Z,18.13
2018-07-22T09:05:33.264Z,17.47
2018-07-22T09:08:02.504Z,17.73
2018-07-22T09:10:31.582Z,17.43
2018-07-22T09:13:00.734Z,15.93
2018-07-22T09:15:30.391Z,17.47
2018-07-22T09:17:59.368Z,15.33
2018-07-22T09:20:28.445Z,16.83
2018-07-22T09:22:57.457Z,15.30
2018-07-22T09:25:26.450Z,16.17
2018-07-22T09:27:55.494Z,14.80
2018-07-22T09:30:24.675Z,14.67
2018-07-22T09:32:53.643Z,14.37
2018-07-22T09:35:24.117Z,16.20
2018-07-22T09:37:55.551Z,14.43
2018-07-22T09:40:24.691Z,13.77
2018-07-22T09:42:53.696Z,14.13
2018-07-22T09:45:22.726Z,15.20
2018-07-22T09:47:52.117Z,13.77
2018-07-22T09:50:21.140Z,15.20
2018-07-22T09:52:50.247Z,15.93
2018-07-22T09:55:19.286Z,15.80
2018-07-22T09:57:48.359Z,15.37
2018-07-22T10:01:19.759Z,14.00
2018-07-22T10:03:48.827Z,17.03
2018-07-22T10:06:17.848Z,16.50
2018-07-22T10:08:46.844Z,14.77
2018-07-22T10:11:15.885Z,16.37
2018-07-22T10:13:44.801Z,13.97
2018-07-22T10:16:13.803Z,14.80
2018-07-22T10:18:42.774Z,15.27
2018-07-22T10:21:11.857Z,13.50
2018-07-22T10:23:40.851Z,13.73
2018-07-22T10:26:09.946Z,12.63
2018-07-22T10:28:38.996Z,15.53
2018-07-22T10:31:07.985Z,13.90
2018-07-22T10:33:36.959Z,13.33
2018-07-22T10:36:06.178Z,13.50
2018-07-22T10:38:35.227Z,14.53
2018-07-22T10:41:04.367Z,16.77
2018-07-22T10:43:33.530Z,14.90
2018-07-22T10:46:02.606Z,15.97
2018-07-22T10:48:31.618Z,14.07
2018-07-22T10:51:00.672Z,12.87
2018-07-22T10:53:29.806Z,14.60
2018-07-22T10:55:58.799Z,15.40
2018-07-22T10:58:27.782Z,15.00
2018-07-22T11:00:56.853Z,14.00
2018-07-22T11:03:25.928Z,13.43
2018-07-22T11:05:55.033Z,15.83
2018-07-22T11:08:23.974Z,14.27
2018-07-22T11:10:52.994Z,13.93
2018-07-22T11:13:22.020Z,13.20
2018-07-22T11:15:51.098Z,14.17
2018-07-22T11:18:20.080Z,13.03
2018-07-22T11:20:49.046Z,13.47
2018-07-22T11:23:18.143Z,12.53
2018-07-22T11:25:47.138Z,11.73
2018-07-22T11:28:16.116Z,12.87
2018-07-22T11:30:45.095Z,12.23
2018-07-22T11:33:14.944Z,11.67
2018-07-22T11:35:43.947Z,10.70
2018-07-22T11:38:18.233Z,11.47
2018-07-22T11:40:48.167Z,10.57
2018-07-22T11:43:17.138Z,10.43
2018-07-22T11:45:52.779Z,10.23
2018-07-22T11:48:21.806Z,10.73
2018-07-22T11:50:53.522Z,11.07
2018-07-22T11:53:22.617Z,11.00
2018-07-22T11:55:52.176Z,10.00
2018-07-22T11:58:21.531Z,10.67
2018-07-22T12:00:50.576Z,9.87
2018-07-22T12:03:20.337Z,9.60
2018-07-22T12:05:49.682Z,10.90
2018-07-22T12:08:19.009Z,9.53
2018-07-22T12:10:48.166Z,10.60
2018-07-22T12:13:17.153Z,10.57
2018-07-22T12:15:46.146Z,10.33
2018-07-22T12:18:15.191Z,11.40
2018-07-22T12:20:44.254Z,11.20
2018-07-22T12:23:13.230Z,11.73
2018-07-22T12:25:42.342Z,10.67
2018-07-22T12:28:11.414Z,11.07
2018-07-22T12:30:40.433Z,10.30
2018-07-22T12:33:09.523Z,10.47
2018-07-22T12:35:38.519Z,10.10
2018-07-22T12:38:07.593Z,10.03
2018-07-22T12:40:36.626Z,11.23
2018-07-22T12:43:05.615Z,10.33
2018-07-22T12:45:34.554Z,9.70
2018-07-22T12:48:03.563Z,10.23
2018-07-22T12:50:32.595Z,10.13
2018-07-22T12:53:01.565Z,10.07
2018-07-22T12:55:30.570Z,12.30
2018-07-22T12:57:59.582Z,10.87
2018-07-22T13:00:28.618Z,10.30
2018-07-22T13:02:57.713Z,9.87
2018-07-22T13:05:26.760Z,9.47
2018-07-22T13:07:55.800Z,10.43
2018-07-22T13:10:24.776Z,9.37
2018-07-22T13:12:53.938Z,9.77
2018-07-22T13:15:22.946Z,9.03
2018-07-22T13:17:52.138Z,9.70
2018-07-22T13:20:21.087Z,10.13
2018-07-22T13:22:50.077Z,9.47
2018-07-22T13:25:19.094Z,8.50
2018-07-22T13:27:48.182Z,8.87
2018-07-22T13:30:17.214Z,9.70
2018-07-22T13:32:46.238Z,9.00
2018-07-22T13:35:15.246Z,9.07
2018-07-22T13:37:44.482Z,8.67
2018-07-22T13:40:13.482Z,10.40
2018-07-22T13:42:42.450Z,9.33
2018-07-22T13:45:11.508Z,9.57
2018-07-22T13:47:40.415Z,9.50
2018-07-22T13:50:09.394Z,9.30
2018-07-22T13:52:38.371Z,9.60
2018-07-22T13:55:07.346Z,9.40
2018-07-22T13:57:36.374Z,9.30
2018-07-22T14:00:05.490Z,9.33
2018-07-22T14:02:34.458Z,9.37
2018-07-22T14:05:03.698Z,9.90
2018-07-22T14:07:32.694Z,9.60
2018-07-22T14:10:01.746Z,10.23
2018-07-22T14:12:30.754Z,9.53
2018-07-22T14:14:59.795Z,10.00
2018-07-22T14:17:28.981Z,9.10
2018-07-22T14:19:58.565Z,9.47
2018-07-22T14:22:27.530Z,9.40
2018-07-22T14:24:56.641Z,10.03
2018-07-22T14:27:25.636Z,8.90
2018-07-22T14:29:54.683Z,9.37
2018-07-22T14:32:23.768Z,8.73
2018-07-22T14:34:52.790Z,8.73
2018-07-22T14:37:21.778Z,9.00
2018-07-22T14:39:50.833Z,8.87
2018-07-22T14:42:19.846Z,10.23
2018-07-22T14:44:49.074Z,9.67
2018-07-22T14:47:18.109Z,10.13
2018-07-22T14:49:47.074Z,9.47
2018-07-22T14:52:16.178Z,9.50
2018-07-22T14:54:45.178Z,10.33
2018-07-22T14:57:14.158Z,9.23
2018-07-22T14:59:43.162Z,8.60
2018-07-22T15:02:12.179Z,9.40
2018-07-22T15:04:41.221Z,9.93
2018-07-22T15:07:10.205Z,9.60
2018-07-22T15:09:39.199Z,9.90
2018-07-22T15:12:08.410Z,9.40
2018-07-22T15:14:37.390Z,9.10
2018-07-22T15:17:06.366Z,9.87
2018-07-22T15:19:35.402Z,10.23
2018-07-22T15:22:04.396Z,10.33
2018-07-22T15:24:33.467Z,10.67
2018-07-22T15:27:02.470Z,10.10
2018-07-22T15:29:31.511Z,9.77
2018-07-22T15:32:00.682Z,9.30
2018-07-22T15:34:29.655Z,9.20
2018-07-22T15:36:58.743Z,10.23
2018-07-22T15:39:27.743Z,9.03
2018-07-22T15:41:56.758Z,9.87
2018-07-22T15:44:25.855Z,10.23
2018-07-22T15:46:54.854Z,9.43
2018-07-22T15:49:23.983Z,9.73
2018-07-22T15:51:52.984Z,9.90
2018-07-22T15:54:22.054Z,9.60
2018-07-22T15:56:51.034Z,10.10
2018-07-22T15:59:20.344Z,8.70
2018-07-22T16:01:49.333Z,9.27
2018-07-22T16:04:18.401Z,10.50
2018-07-22T16:06:47.430Z,8.50
2018-07-22T16:09:16.474Z,9.00
2018-07-22T16:11:45.489Z,9.13
2018-07-22T16:14:14.676Z,8.97
2018-07-22T16:16:43.676Z,9.03
2018-07-22T16:19:12.656Z,9.83
2018-07-22T16:21:41.762Z,9.87
2018-07-22T16:24:11.038Z,9.90
2018-07-22T16:26:40.040Z,9.50
2018-07-22T16:29:09.078Z,11.33
2018-07-22T16:31:38.121Z,8.63
2018-07-22T16:34:07.189Z,9.77
2018-07-22T16:36:36.166Z,9.60
2018-07-22T16:39:07.734Z,10.00
2018-07-22T16:41:36.751Z,10.23
2018-07-22T16:44:06.407Z,10.20
2018-07-22T16:46:35.571Z,9.60
2018-07-22T16:49:04.590Z,9.70
2018-07-22T16:51:33.727Z,10.00
2018-07-22T16:54:02.734Z,10.53
2018-07-22T16:56:32.114Z,10.80
2018-07-22T16:59:01.526Z,9.97
2018-07-22T17:01:30.532Z,9.80
2018-07-22T17:03:59.706Z,10.13
2018-07-22T17:06:28.709Z,10.10
2018-07-22T17:08:57.750Z,9.83
2018-07-22T17:11:26.722Z,9.90
2018-07-22T17:13:55.750Z,9.63
2018-07-22T17:16:24.799Z,9.60
2018-07-22T17:18:54.050Z,10.57
2018-07-22T17:21:23.918Z,10.13
2018-07-22T17:23:52.963Z,10.20
2018-07-22T17:26:22.087Z,9.83
2018-07-22T17:28:51.670Z,9.73
2018-07-22T17:31:23.330Z,9.80
2018-07-22T17:33:52.802Z,11.63
2018-07-22T17:36:21.910Z,10.40
2018-07-22T17:38:50.968Z,9.77
2018-07-22T17:41:20.222Z,10.50
2018-07-22T17:43:48.889Z,12.27
2018-07-22T17:46:24.110Z,10.47
2018-07-22T17:48:53.235Z,11.97
2018-07-22T17:51:22.302Z,10.57
2018-07-22T17:53:51.314Z,11.70
2018-07-22T17:56:20.322Z,11.17
2018-07-22T17:58:49.326Z,11.77
2018-07-22T18:01:18.435Z,11.20
2018-07-22T18:03:47.450Z,13.73
2018-07-22T18:06:16.433Z,12.60
2018-07-22T18:08:45.646Z,12.20
2018-07-22T18:11:14.774Z,11.03
2018-07-22T18:13:43.775Z,11.27
2018-07-22T18:16:12.813Z,11.93
2018-07-22T18:18:41.854Z,11.70
2018-07-22T18:21:10.859Z,10.87
2018-07-22T18:23:39.854Z,11.17
2018-07-22T18:26:09.310Z,12.30
2018-07-22T18:28:38.428Z,11.90
2018-07-22T18:31:07.439Z,12.27
2018-07-22T18:33:36.460Z,12.57
2018-07-22T18:36:06.073Z,12.33
2018-07-22T18:38:35.114Z,11.67
2018-07-22T18:41:04.158Z,11.80
2018-07-22T18:43:33.186Z,12.03
2018-07-22T18:46:02.333Z,12.63
2018-07-22T18:48:31.660Z,12.23
2018-07-22T18:51:00.661Z,12.40
2018-07-22T18:53:30.690Z,12.17
2018-07-22T18:56:00.242Z,12.43
2018-07-22T18:58:29.658Z,12.70
2018-07-22T19:00:58.959Z,12.47
2018-07-22T19:03:28.030Z,13.60
2018-07-22T19:05:57.930Z,12.40
2018-07-22T19:08:26.951Z,13.37
2018-07-22T19:10:56.012Z,13.10
2018-07-22T19:13:25.022Z,12.53
2018-07-22T19:15:54.026Z,12.50
2018-07-22T19:18:23.144Z,13.00
2018-07-22T19:20:52.313Z,13.40
2018-07-22T19:23:21.271Z,13.47
2018-07-22T19:25:51.558Z,13.50
2018-07-22T19:28:20.986Z,14.23
2018-07-22T19:30:49.991Z,13.67
2018-07-22T19:33:19.535Z,12.90
2018-07-22T19:35:48.734Z,14.30
2018-07-22T19:38:17.768Z,13.10
2018-07-22T19:40:46.846Z,13.93
2018-07-22T19:43:16.121Z,13.47
2018-07-22T19:45:45.435Z,13.07
2018-07-22T19:48:14.526Z,13.63
2018-07-22T19:50:43.613Z,12.60
2018-07-22T19:53:12.854Z,13.20
2018-07-22T19:55:42.003Z,12.83
2018-07-22T19:58:11.160Z,14.13
2018-07-22T20:00:40.284Z,12.77
2018-07-22T20:03:09.257Z,13.43
2018-07-22T20:05:38.338Z,13.43
2018-07-22T20:08:07.350Z,14.10
2018-07-22T20:10:36.494Z,13.87
2018-07-22T20:13:05.626Z,14.43
2018-07-22T20:15:34.609Z,15.17
2018-07-22T20:18:03.637Z,15.83
2018-07-22T20:20:32.622Z,15.70
2018-07-22T20:23:02.630Z,16.83
2018-07-22T20:25:31.850Z,17.77
2018-07-22T20:28:00.905Z,16.87
2018-07-22T20:30:29.914Z,18.20
2018-07-22T20:32:58.996Z,18.30
2018-07-22T20:35:28.521Z,17.60
2018-07-22T20:37:57.604Z,17.03
2018-07-22T20:40:26.667Z,16.87
2018-07-22T20:42:56.647Z,16.37
2018-07-22T20:45:25.758Z,17.33
2018-07-22T20:47:54.778Z,15.80
2018-07-22T20:50:23.802Z,17.50
2018-07-22T20:52:52.823Z,15.67
2018-07-22T20:55:21.958Z,16.87
2018-07-22T20:57:51.451Z,17.07
2018-07-22T21:00:20.586Z,16.63
2018-07-22T21:02:49.827Z,15.43
2018-07-22T21:05:18.873Z,17.37
2018-07-22T21:07:47.954Z,16.50
2018-07-22T21:10:18.280Z,16.70
2018-07-22T21:13:21.701Z,15.97
2018-07-22T21:15:51.311Z,15.37
2018-07-22T21:18:20.344Z,15.63
2018-07-22T21:20:49.343Z,15.93
2018-07-22T21:23:18.518Z,16.77
2018-07-22T21:25:47.539Z,16.10
2018-07-22T21:28:17.414Z,17.23
2018-07-22T21:30:46.498Z,17.13
2018-07-22T21:33:15.530Z,16.67
2018-07-22T21:35:44.590Z,15.80
2018-07-22T21:38:13.574Z,16.00
2018-07-22T21:40:42.614Z,17.07
2018-07-22T21:43:11.740Z,16.90
2018-07-22T21:45:40.758Z,17.27
2018-07-22T21:48:09.843Z,16.37
2018-07-22T21:50:38.918Z,16.67
2018-07-22T21:53:07.930Z,16.43
2018-07-22T21:55:37.055Z,16.20
2018-07-22T21:58:06.600Z,16.80
2018-07-22T22:00:40.963Z,15.70
2018-07-22T22:03:09.998Z,17.27
2018-07-22T22:05:39.102Z,16.07
2018-07-22T22:08:08.191Z,16.27
2018-07-22T22:10:37.288Z,17.07
2018-07-22T22:13:06.349Z,15.80
2018-07-22T22:15:35.439Z,16.17
2018-07-22T22:18:05.237Z,16.40
2018-07-22T22:20:34.431Z,15.70
2018-07-22T22:23:03.483Z,15.87
2018-07-22T22:25:32.571Z,16.60
2018-07-22T22:28:01.637Z,16.13
2018-07-22T22:30:30.606Z,15.83
2018-07-22T22:32:59.599Z,16.07
2018-07-22T22:35:28.602Z,16.83
2018-07-22T22:37:57.618Z,16.80
2018-07-22T22:40:27.035Z,17.30
2018-07-22T22:42:56.046Z,18.17
2018-07-22T22:45:25.116Z,18.10
2018-07-22T22:47:54.111Z,18.73
2018-07-22T22:50:23.167Z,17.73
2018-07-22T22:52:52.187Z,18.43
2018-07-22T22:55:21.534Z,16.27
2018-07-22T22:58:01.800Z,16.90
2018-07-22T23:00:30.859Z,17.67
2018-07-22T23:02:59.962Z,18.57
2018-07-22T23:05:28.947Z,17.93
2018-07-22T23:07:57.918Z,17.17
2018-07-22T23:10:26.898Z,18.20
2018-07-22T23:12:56.007Z,17.70
2018-07-22T23:15:25.059Z,16.37
2018-07-22T23:17:54.066Z,17.80
2018-07-22T23:20:23.077Z,17.60
2018-07-22T23:22:52.442Z,17.93
2018-07-22T23:25:21.413Z,19.97
2018-07-22T23:27:50.466Z,18.83
2018-07-22T23:30:19.459Z,19.07
2018-07-22T23:32:48.482Z,18.97
2018-07-22T23:35:17.482Z,20.07
2018-07-22T23:37:46.578Z,20.20
2018-07-22T23:40:15.694Z,20.03
2018-07-22T23:42:44.728Z,17.73
2018-07-22T23:45:13.727Z,18.93
2018-07-22T23:47:42.749Z,18.83
2018-07-22T23:50:11.743Z,18.87
2018-07-22T23:52:40.738Z,19.77
2018-07-22T23:55:09.742Z,18.63
2018-07-22T23:57:38.718Z,18.90
